Lenox, Michigan
Current Conditions -  °F | °C
As of 10:00 PM on Thursday 27 Nov 2014 (Local Time) from KMTC Reporting Station
Unknown Precip Unknown Precip  
Wind Chill: 17°   Ceiling: 6000
Heat Index: 27°   Visibility: 10mi
Dew Point: 18°   Wind: 10mph
Humidity: 69%   Direction: 310°NW
Pressure: 30.25"   Gusts: NA
Location:  42.7851°N, 82.803°W
Report Text: KMTC 280300Z AUTO 31009KT 10SM UP FEW028 SCT037 BKN060 M03/M08 A3025 RMK AO2
Loading
Personal Weather Stations






























Interactive Weather Map New forecast layout! Learn more

10-Day Weather Forecast

Advertisements
Track Severe Weather on mobile